sensor_id;sensor_type;location;lat;lon;timestamp;temperature;humidity
55331;DHT22;58851;42.984;20.336;2023-02-04T00:01:31;77.70;6476.80
55331;DHT22;58851;42.984;20.336;2023-02-04T00:03:57;77.70;6476.80
55331;DHT22;58851;42.984;20.336;2023-02-04T00:06:23;77.70;6476.80
55331;DHT22;58851;42.984;20.336;2023-02-04T00:08:57;77.70;6476.80
55331;DHT22;58851;42.984;20.336;2023-02-04T00:15:22;77.60;6476.80
55331;DHT22;58851;42.984;20.336;2023-02-04T00:17:47;77.60;6476.80
55331;DHT22;58851;42.984;20.336;2023-02-04T00:20:13;77.70;6476.80
55331;DHT22;58851;42.984;20.336;2023-02-04T00:22:39;77.70;6476.80
55331;DHT22;58851;42.984;20.336;2023-02-04T00:25:05;102.40;6476.80
55331;DHT22;58851;42.984;20.336;2023-02-04T00:27:31;102.40;6476.80
55331;DHT22;58851;42.984;20.336;2023-02-04T00:29:57;102.40;6476.80
55331;DHT22;58851;42.984;20.336;2023-02-04T00:32:23;102.40;6476.80
55331;DHT22;58851;42.984;20.336;2023-02-04T00:34:59;102.40;6476.80
55331;DHT22;58851;42.984;20.336;2023-02-04T00:37:26;102.40;6476.80
55331;DHT22;58851;42.984;20.336;2023-02-04T00:39:52;102.40;6476.80
55331;DHT22;58851;42.984;20.336;2023-02-04T00:42:17;102.50;486.40
55331;DHT22;58851;42.984;20.336;2023-02-04T00:44:43;102.50;6476.80
55331;DHT22;58851;42.984;20.336;2023-02-04T00:47:10;102.40;6476.80
55331;DHT22;58851;42.984;20.336;2023-02-04T00:49:36;102.40;6476.80
55331;DHT22;58851;42.984;20.336;2023-02-04T00:52:01;77.70;6476.80
55331;DHT22;58851;42.984;20.336;2023-02-04T00:54:27;77.60;6476.80
55331;DHT22;58851;42.984;20.336;2023-02-04T00:56:53;77.60;6476.80
55331;DHT22;58851;42.984;20.336;2023-02-04T00:59:19;77.60;6476.80
55331;DHT22;58851;42.984;20.336;2023-02-04T01:01:44;77.50;6476.80
55331;DHT22;58851;42.984;20.336;2023-02-04T01:04:10;77.40;6476.80
55331;DHT22;58851;42.984;20.336;2023-02-04T01:06:36;77.50;6476.80
55331;DHT22;58851;42.984;20.336;2023-02-04T01:09:03;77.60;6476.80
55331;DHT22;58851;42.984;20.336;2023-02-04T01:11:30;77.60;6476.80
55331;DHT22;58851;42.984;20.336;2023-02-04T01:13:55;77.60;6476.80
55331;DHT22;58851;42.984;20.336;2023-02-04T01:16:21;77.60;6476.80
55331;DHT22;58851;42.984;20.336;2023-02-04T01:18:47;77.50;6476.80
55331;DHT22;58851;42.984;20.336;2023-02-04T01:21:13;77.50;6476.80
55331;DHT22;58851;42.984;20.336;2023-02-04T01:23:39;77.50;6476.80
55331;DHT22;58851;42.984;20.336;2023-02-04T01:26:05;77.60;6476.80
55331;DHT22;58851;42.984;20.336;2023-02-04T01:28:30;77.60;6476.80
55331;DHT22;58851;42.984;20.336;2023-02-04T01:30:56;77.60;6476.80
55331;DHT22;58851;42.984;20.336;2023-02-04T01:33:22;77.50;6476.80
55331;DHT22;58851;42.984;20.336;2023-02-04T01:35:48;77.50;6476.80
55331;DHT22;58851;42.984;20.336;2023-02-04T01:38:13;77.50;6476.80
55331;DHT22;58851;42.984;20.336;2023-02-04T01:40:40;77.60;6476.80
55331;DHT22;58851;42.984;20.336;2023-02-04T01:43:06;77.60;6476.80
55331;DHT22;58851;42.984;20.336;2023-02-04T01:45:32;77.50;6476.80
55331;DHT22;58851;42.984;20.336;2023-02-04T01:48:04;77.40;6476.80
55331;DHT22;58851;42.984;20.336;2023-02-04T01:50:31;77.30;6476.80
55331;DHT22;58851;42.984;20.336;2023-02-04T01:52:57;77.20;6476.80
55331;DHT22;58851;42.984;20.336;2023-02-04T01:55:29;77.30;6476.80
55331;DHT22;58851;42.984;20.336;2023-02-04T01:57:54;77.30;6476.80
55331;DHT22;58851;42.984;20.336;2023-02-04T02:00:26;77.40;6476.80
55331;DHT22;58851;42.984;20.336;2023-02-04T02:02:53;77.30;6476.80
55331;DHT22;58851;42.984;20.336;2023-02-04T02:05:46;77.40;6476.80
55331;DHT22;58851;42.984;20.336;2023-02-04T02:08:11;77.40;6476.80
55331;DHT22;58851;42.984;20.336;2023-02-04T02:10:39;77.40;6476.80
55331;DHT22;58851;42.984;20.336;2023-02-04T02:13:08;77.40;6476.80
55331;DHT22;58851;42.984;20.336;2023-02-04T02:15:35;77.40;6476.80
55331;DHT22;58851;42.984;20.336;2023-02-04T02:18:01;77.40;6476.80
55331;DHT22;58851;42.984;20.336;2023-02-04T02:20:27;77.30;6476.80
55331;DHT22;58851;42.984;20.336;2023-02-04T02:25:41;77.50;6476.80
55331;DHT22;58851;42.984;20.336;2023-02-04T02:28:12;77.40;6476.80
55331;DHT22;58851;42.984;20.336;2023-02-04T02:30:39;77.50;6476.80
55331;DHT22;58851;42.984;20.336;2023-02-04T02:33:05;77.60;6476.80
55331;DHT22;58851;42.984;20.336;2023-02-04T02:35:32;77.60;6476.80
55331;DHT22;58851;42.984;20.336;2023-02-04T02:37:57;77.50;6476.80
55331;DHT22;58851;42.984;20.336;2023-02-04T02:40:23;77.60;6476.80
55331;DHT22;58851;42.984;20.336;2023-02-04T02:42:51;77.50;6476.80
55331;DHT22;58851;42.984;20.336;2023-02-04T02:45:26;77.40;6476.80
55331;DHT22;58851;42.984;20.336;2023-02-04T02:47:53;77.40;6476.80
55331;DHT22;58851;42.984;20.336;2023-02-04T02:50:23;77.30;6476.80
55331;DHT22;58851;42.984;20.336;2023-02-04T02:52:50;77.40;6476.80
55331;DHT22;58851;42.984;20.336;2023-02-04T02:55:27;77.40;6476.80
55331;DHT22;58851;42.984;20.336;2023-02-04T02:57:55;77.30;6476.80
55331;DHT22;58851;42.984;20.336;2023-02-04T03:00:30;77.30;6476.80
55331;DHT22;58851;42.984;20.336;2023-02-04T03:03:06;77.40;6476.80
55331;DHT22;58851;42.984;20.336;2023-02-04T03:05:36;77.40;6476.80
55331;DHT22;58851;42.984;20.336;2023-02-04T03:08:03;77.30;1356.80
55331;DHT22;58851;42.984;20.336;2023-02-04T03:10:29;77.20;2227.20
55331;DHT22;58851;42.984;20.336;2023-02-04T03:12:55;77.20;2227.20
55331;DHT22;58851;42.984;20.336;2023-02-04T03:15:21;77.20;2227.20
55331;DHT22;58851;42.984;20.336;2023-02-04T03:17:47;77.30;2227.20
55331;DHT22;58851;42.984;20.336;2023-02-04T03:20:14;77.40;2227.20
55331;DHT22;58851;42.984;20.336;2023-02-04T03:22:40;77.50;2227.20
55331;DHT22;58851;42.984;20.336;2023-02-04T03:25:07;77.60;2227.20
55331;DHT22;58851;42.984;20.336;2023-02-04T03:27:33;77.60;2227.20
55331;DHT22;58851;42.984;20.336;2023-02-04T03:29:58;77.60;1766.40
55331;DHT22;58851;42.984;20.336;2023-02-04T03:32:25;77.40;2022.40
55331;DHT22;58851;42.984;20.336;2023-02-04T03:34:50;77.20;6476.80
55331;DHT22;58851;42.984;20.336;2023-02-04T03:37:16;77.20;1254.40
55331;DHT22;58851;42.984;20.336;2023-02-04T03:39:42;77.20;6476.80
55331;DHT22;58851;42.984;20.336;2023-02-04T03:42:07;77.30;6476.80
55331;DHT22;58851;42.984;20.336;2023-02-04T03:44:33;77.30;6476.80
55331;DHT22;58851;42.984;20.336;2023-02-04T03:46:59;77.30;6476.80
55331;DHT22;58851;42.984;20.336;2023-02-04T03:49:24;77.30;6476.80
55331;DHT22;58851;42.984;20.336;2023-02-04T03:51:50;77.30;6476.80
55331;DHT22;58851;42.984;20.336;2023-02-04T03:54:16;77.30;6476.80
55331;DHT22;58851;42.984;20.336;2023-02-04T03:56:42;77.30;6476.80
55331;DHT22;58851;42.984;20.336;2023-02-04T03:59:07;77.30;6476.80
55331;DHT22;58851;42.984;20.336;2023-02-04T04:01:33;77.30;6476.80
55331;DHT22;58851;42.984;20.336;2023-02-04T04:03:59;77.20;6476.80
55331;DHT22;58851;42.984;20.336;2023-02-04T04:06:24;77.30;6476.80
55331;DHT22;58851;42.984;20.336;2023-02-04T04:08:50;77.30;6476.80
55331;DHT22;58851;42.984;20.336;2023-02-04T04:11:16;77.20;6476.80
55331;DHT22;58851;42.984;20.336;2023-02-04T04:13:42;77.30;6476.80
55331;DHT22;58851;42.984;20.336;2023-02-04T04:16:07;77.20;6476.80
55331;DHT22;58851;42.984;20.336;2023-02-04T04:18:34;77.20;6476.80
55331;DHT22;58851;42.984;20.336;2023-02-04T04:21:00;77.10;6476.80
55331;DHT22;58851;42.984;20.336;2023-02-04T04:23:26;77.00;6476.80
55331;DHT22;58851;42.984;20.336;2023-02-04T04:25:51;77.00;6476.80
55331;DHT22;58851;42.984;20.336;2023-02-04T04:28:17;76.90;6476.80
55331;DHT22;58851;42.984;20.336;2023-02-04T04:30:43;76.90;6476.80
55331;DHT22;58851;42.984;20.336;2023-02-04T04:33:09;76.90;6476.80
55331;DHT22;58851;42.984;20.336;2023-02-04T04:35:34;76.90;6476.80
55331;DHT22;58851;42.984;20.336;2023-02-04T04:38:01;76.90;6476.80
55331;DHT22;58851;42.984;20.336;2023-02-04T04:40:27;76.90;6476.80
55331;DHT22;58851;42.984;20.336;2023-02-04T04:42:52;76.90;6476.80
55331;DHT22;58851;42.984;20.336;2023-02-04T04:45:19;76.90;6476.80
55331;DHT22;58851;42.984;20.336;2023-02-04T04:47:44;76.90;6476.80
55331;DHT22;58851;42.984;20.336;2023-02-04T04:50:10;76.90;6476.80
55331;DHT22;58851;42.984;20.336;2023-02-04T04:52:36;76.90;6476.80
55331;DHT22;58851;42.984;20.336;2023-02-04T04:55:02;76.90;6476.80
55331;DHT22;58851;42.984;20.336;2023-02-04T04:57:28;76.90;6476.80
55331;DHT22;58851;42.984;20.336;2023-02-04T04:59:54;76.90;6476.80
55331;DHT22;58851;42.984;20.336;2023-02-04T05:02:19;76.90;6476.80
55331;DHT22;58851;42.984;20.336;2023-02-04T05:04:45;77.00;6476.80
55331;DHT22;58851;42.984;20.336;2023-02-04T05:07:11;77.00;6476.80
55331;DHT22;58851;42.984;20.336;2023-02-04T05:09:37;77.00;6476.80
55331;DHT22;58851;42.984;20.336;2023-02-04T05:12:03;77.10;6476.80
55331;DHT22;58851;42.984;20.336;2023-02-04T05:14:28;77.00;6476.80
55331;DHT22;58851;42.984;20.336;2023-02-04T05:16:54;77.10;6476.80
55331;DHT22;58851;42.984;20.336;2023-02-04T05:19:20;77.20;6476.80
55331;DHT22;58851;42.984;20.336;2023-02-04T05:21:45;77.20;6476.80
55331;DHT22;58851;42.984;20.336;2023-02-04T05:24:11;77.20;6476.80
55331;DHT22;58851;42.984;20.336;2023-02-04T05:26:37;77.20;6476.80
55331;DHT22;58851;42.984;20.336;2023-02-04T05:29:03;77.30;6476.80
55331;DHT22;58851;42.984;20.336;2023-02-04T05:31:29;77.30;6476.80
55331;DHT22;58851;42.984;20.336;2023-02-04T05:33:54;77.30;6476.80
55331;DHT22;58851;42.984;20.336;2023-02-04T05:36:20;77.20;6476.80
55331;DHT22;58851;42.984;20.336;2023-02-04T05:38:46;77.20;6476.80
55331;DHT22;58851;42.984;20.336;2023-02-04T05:41:12;77.20;6476.80
55331;DHT22;58851;42.984;20.336;2023-02-04T05:43:38;77.10;6476.80
55331;DHT22;58851;42.984;20.336;2023-02-04T05:46:04;77.20;6476.80
55331;DHT22;58851;42.984;20.336;2023-02-04T05:48:30;77.20;6476.80
55331;DHT22;58851;42.984;20.336;2023-02-04T05:50:56;77.30;6476.80
55331;DHT22;58851;42.984;20.336;2023-02-04T05:53:21;77.30;6476.80
55331;DHT22;58851;42.984;20.336;2023-02-04T05:55:47;77.30;6476.80
55331;DHT22;58851;42.984;20.336;2023-02-04T05:58:13;77.20;6476.80
55331;DHT22;58851;42.984;20.336;2023-02-04T06:00:39;77.20;6476.80
55331;DHT22;58851;42.984;20.336;2023-02-04T06:03:05;77.10;6476.80
55331;DHT22;58851;42.984;20.336;2023-02-04T06:05:31;77.20;6476.80
55331;DHT22;58851;42.984;20.336;2023-02-04T06:07:57;77.10;6476.80
55331;DHT22;58851;42.984;20.336;2023-02-04T06:10:23;77.00;6476.80
55331;DHT22;58851;42.984;20.336;2023-02-04T06:12:49;77.00;6476.80
55331;DHT22;58851;42.984;20.336;2023-02-04T06:15:14;77.00;6476.80
55331;DHT22;58851;42.984;20.336;2023-02-04T06:17:40;77.10;6476.80
55331;DHT22;58851;42.984;20.336;2023-02-04T06:20:07;77.00;6476.80
55331;DHT22;58851;42.984;20.336;2023-02-04T06:22:33;77.10;6476.80
55331;DHT22;58851;42.984;20.336;2023-02-04T06:24:59;77.00;6476.80
55331;DHT22;58851;42.984;20.336;2023-02-04T06:27:24;77.00;6476.80
55331;DHT22;58851;42.984;20.336;2023-02-04T06:29:52;77.10;6476.80
55331;DHT22;58851;42.984;20.336;2023-02-04T06:32:18;77.10;6476.80
55331;DHT22;58851;42.984;20.336;2023-02-04T06:34:44;77.20;6476.80
55331;DHT22;58851;42.984;20.336;2023-02-04T06:37:11;77.20;537.60
55331;DHT22;58851;42.984;20.336;2023-02-04T06:39:37;77.30;6476.80
55331;DHT22;58851;42.984;20.336;2023-02-04T06:42:03;77.40;6476.80
55331;DHT22;58851;42.984;20.336;2023-02-04T06:44:29;77.40;512.00
55331;DHT22;58851;42.984;20.336;2023-02-04T06:46:55;77.50;435.20
55331;DHT22;58851;42.984;20.336;2023-02-04T06:49:20;77.40;6476.80
55331;DHT22;58851;42.984;20.336;2023-02-04T06:51:46;77.50;6476.80
55331;DHT22;58851;42.984;20.336;2023-02-04T06:54:13;77.50;281.60
55331;DHT22;58851;42.984;20.336;2023-02-04T06:56:39;77.60;256.00
55331;DHT22;58851;42.984;20.336;2023-02-04T06:59:04;77.50;6476.80
55331;DHT22;58851;42.984;20.336;2023-02-04T07:01:30;77.50;6476.80
55331;DHT22;58851;42.984;20.336;2023-02-04T07:03:56;77.50;6476.80
55331;DHT22;58851;42.984;20.336;2023-02-04T07:06:22;77.70;6476.80
55331;DHT22;58851;42.984;20.336;2023-02-04T07:08:47;77.70;6476.80
55331;DHT22;58851;42.984;20.336;2023-02-04T07:11:14;77.60;6476.80
55331;DHT22;58851;42.984;20.336;2023-02-04T07:13:40;77.60;6476.80
55331;DHT22;58851;42.984;20.336;2023-02-04T07:16:06;102.40;6476.80
55331;DHT22;58851;42.984;20.336;2023-02-04T07:18:32;77.70;6476.80
55331;DHT22;58851;42.984;20.336;2023-02-04T07:20:58;77.70;6476.80
55331;DHT22;58851;42.984;20.336;2023-02-04T07:23:24;77.70;6476.80
55331;DHT22;58851;42.984;20.336;2023-02-04T07:25:51;102.40;6476.80
55331;DHT22;58851;42.984;20.336;2023-02-04T07:28:24;102.60;6476.80
55331;DHT22;58851;42.984;20.336;2023-02-04T07:30:50;102.70;6476.80
55331;DHT22;58851;42.984;20.336;2023-02-04T07:33:16;102.70;6476.80
55331;DHT22;58851;42.984;20.336;2023-02-04T07:35:42;102.70;6476.80
55331;DHT22;58851;42.984;20.336;2023-02-04T07:38:08;102.70;6476.80
55331;DHT22;58851;42.984;20.336;2023-02-04T07:40:34;102.70;6476.80
55331;DHT22;58851;42.984;20.336;2023-02-04T07:43:00;102.80;6476.80
55331;DHT22;58851;42.984;20.336;2023-02-04T07:45:26;102.80;6476.80
55331;DHT22;58851;42.984;20.336;2023-02-04T07:47:52;102.90;6476.80
55331;DHT22;58851;42.984;20.336;2023-02-04T07:50:18;102.90;6476.80
55331;DHT22;58851;42.984;20.336;2023-02-04T07:52:43;103.10;6476.80
55331;DHT22;58851;42.984;20.336;2023-02-04T07:55:09;103.00;6476.80
55331;DHT22;58851;42.984;20.336;2023-02-04T07:57:35;102.90;6476.80
55331;DHT22;58851;42.984;20.336;2023-02-04T08:00:01;102.90;6476.80
55331;DHT22;58851;42.984;20.336;2023-02-04T08:02:27;102.90;6476.80
55331;DHT22;58851;42.984;20.336;2023-02-04T08:04:52;102.90;6476.80
55331;DHT22;58851;42.984;20.336;2023-02-04T08:07:18;103.10;6476.80
55331;DHT22;58851;42.984;20.336;2023-02-04T08:09:44;103.00;6476.80
55331;DHT22;58851;42.984;20.336;2023-02-04T08:12:11;103.10;6476.80
55331;DHT22;58851;42.984;20.336;2023-02-04T08:14:37;103.20;6476.80
55331;DHT22;58851;42.984;20.336;2023-02-04T08:17:02;103.30;6476.80
55331;DHT22;58851;42.984;20.336;2023-02-04T08:19:28;128.00;204.80
55331;DHT22;58851;42.984;20.336;2023-02-04T08:21:54;128.10;6502.40
55331;DHT22;58851;42.984;20.336;2023-02-04T08:24:20;128.20;6502.40
55331;DHT22;58851;42.984;20.336;2023-02-04T08:26:45;128.10;6502.40
55331;DHT22;58851;42.984;20.336;2023-02-04T08:29:11;128.20;281.60
55331;DHT22;58851;42.984;20.336;2023-02-04T08:31:37;128.20;6502.40
55331;DHT22;58851;42.984;20.336;2023-02-04T08:34:03;128.20;358.40
55331;DHT22;58851;42.984;20.336;2023-02-04T08:36:29;128.50;128.00
55331;DHT22;58851;42.984;20.336;2023-02-04T08:38:55;128.40;537.60
55331;DHT22;58851;42.984;20.336;2023-02-04T08:41:21;128.50;563.20
55331;DHT22;58851;42.984;20.336;2023-02-04T08:43:46;128.50;6502.40
55331;DHT22;58851;42.984;20.336;2023-02-04T08:46:12;128.50;6502.40
55331;DHT22;58851;42.984;20.336;2023-02-04T08:48:38;128.80;6502.40
55331;DHT22;58851;42.984;20.336;2023-02-04T08:51:04;153.60;6502.40
55331;DHT22;58851;42.984;20.336;2023-02-04T08:53:30;153.60;6502.40
55331;DHT22;58851;42.984;20.336;2023-02-04T08:55:57;153.70;435.20
55331;DHT22;58851;42.984;20.336;2023-02-04T08:58:22;153.70;435.20
55331;DHT22;58851;42.984;20.336;2023-02-04T09:00:48;153.90;307.20
55331;DHT22;58851;42.984;20.336;2023-02-04T09:03:14;154.00;230.40
55331;DHT22;58851;42.984;20.336;2023-02-04T09:05:39;153.90;6528.00
55331;DHT22;58851;42.984;20.336;2023-02-04T09:08:06;153.80;435.20
55331;DHT22;58851;42.984;20.336;2023-02-04T09:10:32;154.10;6502.40
55331;DHT22;58851;42.984;20.336;2023-02-04T09:12:57;154.30;6528.00
55331;DHT22;58851;42.984;20.336;2023-02-04T09:15:23;154.40;6502.40
55331;DHT22;58851;42.984;20.336;2023-02-04T09:18:05;154.40;6502.40
55331;DHT22;58851;42.984;20.336;2023-02-04T09:20:39;154.40;6502.40
55331;DHT22;58851;42.984;20.336;2023-02-04T09:23:05;154.30;6502.40
55331;DHT22;58851;42.984;20.336;2023-02-04T09:25:35;154.30;460.80
55331;DHT22;58851;42.984;20.336;2023-02-04T09:28:01;154.40;6502.40
55331;DHT22;58851;42.984;20.336;2023-02-04T09:30:26;154.00;6502.40
55331;DHT22;58851;42.984;20.336;2023-02-04T09:32:52;153.90;6502.40
55331;DHT22;58851;42.984;20.336;2023-02-04T09:35:18;128.90;6502.40
55331;DHT22;58851;42.984;20.336;2023-02-04T09:37:43;128.80;563.20
55331;DHT22;58851;42.984;20.336;2023-02-04T09:40:13;128.90;486.40
55331;DHT22;58851;42.984;20.336;2023-02-04T09:42:39;128.80;6502.40
55331;DHT22;58851;42.984;20.336;2023-02-04T09:45:16;128.40;6502.40
55331;DHT22;58851;42.984;20.336;2023-02-04T09:47:43;128.20;6502.40
55331;DHT22;58851;42.984;20.336;2023-02-04T09:50:16;128.40;6502.40
55331;DHT22;58851;42.984;20.336;2023-02-04T09:52:43;128.30;6502.40
55331;DHT22;58851;42.984;20.336;2023-02-04T09:55:16;128.30;6502.40
55331;DHT22;58851;42.984;20.336;2023-02-04T09:57:42;128.20;6502.40
55331;DHT22;58851;42.984;20.336;2023-02-04T10:00:21;128.20;6502.40
55331;DHT22;58851;42.984;20.336;2023-02-04T10:02:47;128.40;6502.40
55331;DHT22;58851;42.984;20.336;2023-02-04T10:05:18;128.50;486.40
55331;DHT22;58851;42.984;20.336;2023-02-04T10:07:44;128.50;307.20
55331;DHT22;58851;42.984;20.336;2023-02-04T10:10:19;128.30;256.00
55331;DHT22;58851;42.984;20.336;2023-02-04T10:12:47;128.20;537.60
55331;DHT22;58851;42.984;20.336;2023-02-04T10:15:16;128.40;6502.40
55331;DHT22;58851;42.984;20.336;2023-02-04T10:17:54;128.20;6502.40
55331;DHT22;58851;42.984;20.336;2023-02-04T10:20:24;128.20;6502.40
55331;DHT22;58851;42.984;20.336;2023-02-04T10:22:53;128.30;6502.40
55331;DHT22;58851;42.984;20.336;2023-02-04T10:25:22;128.50;6502.40
55331;DHT22;58851;42.984;20.336;2023-02-04T10:27:59;128.90;6502.40
55331;DHT22;58851;42.984;20.336;2023-02-04T10:30:38;128.90;6502.40
55331;DHT22;58851;42.984;20.336;2023-02-04T10:33:20;128.60;6502.40
55331;DHT22;58851;42.984;20.336;2023-02-04T10:35:51;128.70;6502.40
55331;DHT22;58851;42.984;20.336;2023-02-04T10:38:17;128.80;6502.40
55331;DHT22;58851;42.984;20.336;2023-02-04T10:40:43;128.80;6502.40
55331;DHT22;58851;42.984;20.336;2023-02-04T10:43:16;128.80;6502.40
55331;DHT22;58851;42.984;20.336;2023-02-04T10:46:07;128.80;6502.40
55331;DHT22;58851;42.984;20.336;2023-02-04T10:48:40;153.60;6502.40
55331;DHT22;58851;42.984;20.336;2023-02-04T10:51:10;153.70;6502.40
55331;DHT22;58851;42.984;20.336;2023-02-04T10:53:37;153.70;6502.40
55331;DHT22;58851;42.984;20.336;2023-02-04T10:56:21;153.90;6502.40
55331;DHT22;58851;42.984;20.336;2023-02-04T10:58:48;153.90;6502.40
55331;DHT22;58851;42.984;20.336;2023-02-04T11:01:15;154.10;6502.40
55331;DHT22;58851;42.984;20.336;2023-02-04T11:03:42;154.20;6502.40
55331;DHT22;58851;42.984;20.336;2023-02-04T11:06:14;154.00;6502.40
55331;DHT22;58851;42.984;20.336;2023-02-04T11:08:42;153.90;6502.40
55331;DHT22;58851;42.984;20.336;2023-02-04T11:11:17;154.10;6502.40
55331;DHT22;58851;42.984;20.336;2023-02-04T11:16:32;153.80;6502.40
55331;DHT22;58851;42.984;20.336;2023-02-04T11:19:05;154.00;6502.40
55331;DHT22;58851;42.984;20.336;2023-02-04T11:26:48;154.30;6502.40
55331;DHT22;58851;42.984;20.336;2023-02-04T11:29:36;154.30;6502.40
55331;DHT22;58851;42.984;20.336;2023-02-04T11:32:34;179.20;6502.40
55331;DHT22;58851;42.984;20.336;2023-02-04T11:35:20;179.30;6502.40
55331;DHT22;58851;42.984;20.336;2023-02-04T11:37:46;179.60;6502.40
55331;DHT22;58851;42.984;20.336;2023-02-04T11:43:15;154.30;6502.40
55331;DHT22;58851;42.984;20.336;2023-02-04T11:45:42;154.30;6502.40
55331;DHT22;58851;42.984;20.336;2023-02-04T11:48:18;153.80;6502.40
55331;DHT22;58851;42.984;20.336;2023-02-04T11:50:55;128.80;2252.80
55331;DHT22;58851;42.984;20.336;2023-02-04T11:53:23;102.80;128.00
55331;DHT22;58851;42.984;20.336;2023-02-04T11:55:50;52.10;2227.20
55331;DHT22;58851;42.984;20.336;2023-02-04T11:58:17;51.80;2227.20
55331;DHT22;58851;42.984;20.336;2023-02-04T12:00:45;26.40;2201.60
55331;DHT22;58851;42.984;20.336;2023-02-04T12:03:25;25.80;2201.60
55331;DHT22;58851;42.984;20.336;2023-02-04T12:05:52;25.80;2201.60
55331;DHT22;58851;42.984;20.336;2023-02-04T12:11:03;25.80;2201.60
55331;DHT22;58851;42.984;20.336;2023-02-04T12:13:30;25.90;2201.60
55331;DHT22;58851;42.984;20.336;2023-02-04T12:16:02;25.90;2201.60
55331;DHT22;58851;42.984;20.336;2023-02-04T12:18:29;25.90;2201.60
55331;DHT22;58851;42.984;20.336;2023-02-04T12:20:56;26.00;2201.60
55331;DHT22;58851;42.984;20.336;2023-02-04T12:23:23;26.10;2201.60
55331;DHT22;58851;42.984;20.336;2023-02-04T12:25:50;26.20;2201.60
55331;DHT22;58851;42.984;20.336;2023-02-04T12:28:16;26.20;2201.60
55331;DHT22;58851;42.984;20.336;2023-02-04T12:30:41;26.30;2201.60
55331;DHT22;58851;42.984;20.336;2023-02-04T12:33:07;26.40;2201.60
55331;DHT22;58851;42.984;20.336;2023-02-04T12:35:34;51.20;2227.20
55331;DHT22;58851;42.984;20.336;2023-02-04T12:37:59;51.40;2227.20
55331;DHT22;58851;42.984;20.336;2023-02-04T12:40:26;51.70;2227.20
55331;DHT22;58851;42.984;20.336;2023-02-04T12:42:51;51.90;2227.20
55331;DHT22;58851;42.984;20.336;2023-02-04T12:45:17;51.80;2227.20
55331;DHT22;58851;42.984;20.336;2023-02-04T12:47:44;51.80;2227.20
55331;DHT22;58851;42.984;20.336;2023-02-04T12:50:11;51.50;2227.20
55331;DHT22;58851;42.984;20.336;2023-02-04T12:52:37;51.40;2227.20
55331;DHT22;58851;42.984;20.336;2023-02-04T12:55:05;51.40;2227.20
55331;DHT22;58851;42.984;20.336;2023-02-04T12:57:32;51.60;2227.20
55331;DHT22;58851;42.984;20.336;2023-02-04T12:59:58;51.50;2227.20
55331;DHT22;58851;42.984;20.336;2023-02-04T13:02:26;51.30;2227.20
55331;DHT22;58851;42.984;20.336;2023-02-04T13:04:53;51.40;2227.20
55331;DHT22;58851;42.984;20.336;2023-02-04T13:07:19;26.50;2201.60
55331;DHT22;58851;42.984;20.336;2023-02-04T13:09:45;26.50;2201.60
55331;DHT22;58851;42.984;20.336;2023-02-04T13:12:11;26.50;2201.60
55331;DHT22;58851;42.984;20.336;2023-02-04T13:14:40;51.20;2227.20
55331;DHT22;58851;42.984;20.336;2023-02-04T13:17:07;51.30;2227.20
55331;DHT22;58851;42.984;20.336;2023-02-04T13:19:32;26.50;256.00
55331;DHT22;58851;42.984;20.336;2023-02-04T13:21:59;51.20;2227.20
55331;DHT22;58851;42.984;20.336;2023-02-04T13:24:26;51.40;256.00
55331;DHT22;58851;42.984;20.336;2023-02-04T13:26:52;51.40;2227.20
55331;DHT22;58851;42.984;20.336;2023-02-04T13:29:17;51.40;2227.20
55331;DHT22;58851;42.984;20.336;2023-02-04T13:31:44;52.00;2227.20
55331;DHT22;58851;42.984;20.336;2023-02-04T13:34:10;51.70;6476.80
55331;DHT22;58851;42.984;20.336;2023-02-04T13:36:35;51.90;2227.20
55331;DHT22;58851;42.984;20.336;2023-02-04T13:39:01;51.90;204.80
55331;DHT22;58851;42.984;20.336;2023-02-04T13:41:27;51.50;6476.80
55331;DHT22;58851;42.984;20.336;2023-02-04T13:43:53;76.80;6476.80
55331;DHT22;58851;42.984;20.336;2023-02-04T13:46:19;77.70;6476.80
55331;DHT22;58851;42.984;20.336;2023-02-04T13:48:45;102.80;256.00
55331;DHT22;58851;42.984;20.336;2023-02-04T13:51:12;102.70;6476.80
55331;DHT22;58851;42.984;20.336;2023-02-04T13:53:38;102.80;6476.80
55331;DHT22;58851;42.984;20.336;2023-02-04T13:56:04;77.70;6476.80
55331;DHT22;58851;42.984;20.336;2023-02-04T13:58:30;77.30;6476.80
55331;DHT22;58851;42.984;20.336;2023-02-04T14:00:56;52.00;6476.80
55331;DHT22;58851;42.984;20.336;2023-02-04T14:03:25;51.80;6476.80
55331;DHT22;58851;42.984;20.336;2023-02-04T14:05:52;52.00;6476.80
55331;DHT22;58851;42.984;20.336;2023-02-04T14:08:18;51.90;6476.80
55331;DHT22;58851;42.984;20.336;2023-02-04T14:10:44;51.70;6476.80
55331;DHT22;58851;42.984;20.336;2023-02-04T14:13:10;51.80;844.80
55331;DHT22;58851;42.984;20.336;2023-02-04T14:15:36;51.90;2227.20
55331;DHT22;58851;42.984;20.336;2023-02-04T14:18:03;51.90;6476.80
55331;DHT22;58851;42.984;20.336;2023-02-04T14:20:29;51.70;512.00
55331;DHT22;58851;42.984;20.336;2023-02-04T14:22:55;51.60;6476.80
55331;DHT22;58851;42.984;20.336;2023-02-04T14:25:21;51.70;6476.80
55331;DHT22;58851;42.984;20.336;2023-02-04T14:27:47;51.70;537.60
55331;DHT22;58851;42.984;20.336;2023-02-04T14:30:18;51.70;6476.80
55331;DHT22;58851;42.984;20.336;2023-02-04T14:32:45;51.80;972.80
55331;DHT22;58851;42.984;20.336;2023-02-04T14:35:11;51.50;6476.80
55331;DHT22;58851;42.984;20.336;2023-02-04T14:37:37;51.40;6476.80
55331;DHT22;58851;42.984;20.336;2023-02-04T14:40:03;51.30;6476.80
55331;DHT22;58851;42.984;20.336;2023-02-04T14:42:29;51.20;6476.80
55331;DHT22;58851;42.984;20.336;2023-02-04T14:44:55;26.40;6451.20
55331;DHT22;58851;42.984;20.336;2023-02-04T14:47:21;26.20;6451.20
55331;DHT22;58851;42.984;20.336;2023-02-04T14:49:47;26.30;6451.20
55331;DHT22;58851;42.984;20.336;2023-02-04T14:52:13;26.20;6451.20
55331;DHT22;58851;42.984;20.336;2023-02-04T14:54:39;25.90;6451.20
55331;DHT22;58851;42.984;20.336;2023-02-04T14:57:05;25.80;6451.20
55331;DHT22;58851;42.984;20.336;2023-02-04T14:59:36;25.70;6451.20
55331;DHT22;58851;42.984;20.336;2023-02-04T15:02:03;25.80;6451.20
55331;DHT22;58851;42.984;20.336;2023-02-04T15:04:29;25.80;6451.20
55331;DHT22;58851;42.984;20.336;2023-02-04T15:06:55;26.00;6451.20